»·PEaware :: N701GT KSBA-KSLC

N701GT :: KSBA-KSLC

FLIGHT INFORMATION

Flight Status: Arrived
Operator: Privately registered:
United States
More flights under this callsign
Pilot: Anonymous 17564 (17564)
Aircraft: GATES LEARJET LEARJET 25
(LJ25)
More flights by this aircraft type
Origin: KSBA Santa Barbara Mun
United States
Destination: KSLC Salt Lake City Intl
United States
More flights between these airports :: More routes between these airports
Route: +MISHN2 NNAVY LAS Q70 BLIPP Q842 WINEN MLF QWENN5
File this flight plan on PilotEdge
Remarks:
Altitude:
(Current/Filed)
31,000ft
Speed:
(Current/Filed)
420kts
Departed: 25-Apr-19 03:11 PM
Arrived: 25-Apr-19 04:44 PM
Distance/Time
Traveled:
534nm/1:32
Distance/Time
To Go:
Arrived

Flight Plot

Page will automatically refresh every two minutes.


Map Options




Map Legend


Flown Route
Filed Route
Departure Airport
Arrival Airport
Navaid (VOR, NDB)
Fix

Horizontal Profiles

Position Reports

Time Latitude Longitude Heading Altitude Ground
Speed
25-Apr-19 14:52 34.432345 -119.836024 70 13ft 0kts
25-Apr-19 14:53 34.432345 -119.836024 70 13ft 0kts
25-Apr-19 14:54 34.432345 -119.836024 70 13ft 0kts
25-Apr-19 14:55 34.432345 -119.836024 70 13ft 0kts
25-Apr-19 14:56 34.432345 -119.836024 70 13ft 0kts
25-Apr-19 14:57 34.432345 -119.836024 70 13ft 0kts
25-Apr-19 14:58 34.432345 -119.836024 70 13ft 0kts
25-Apr-19 14:59 34.432345 -119.836024 70 13ft 0kts
25-Apr-19 15:00 34.432345 -119.836024 70 13ft 0kts
25-Apr-19 15:01 34.432345 -119.836024 70 13ft 0kts
25-Apr-19 15:03 34.432345 -119.836024 70 13ft 0kts
25-Apr-19 15:04 34.432345 -119.836023 70 13ft 0kts
25-Apr-19 15:05 34.432345 -119.836022 70 13ft 0kts
25-Apr-19 15:06 34.432181 -119.835623 140 13ft 2kts
25-Apr-19 15:07 34.431126 -119.835358 179 13ft 4kts
25-Apr-19 15:08 34.430271 -119.835296 176 13ft 4kts
25-Apr-19 15:09 34.428950 -119.835254 178 13ft 0kts
25-Apr-19 15:10 34.428888 -119.835253 178 13ft 2kts
25-Apr-19 15:11 34.427703 -119.844794 268 13ft 145kts
25-Apr-19 15:12 34.423855 -119.910505 242 2649ft 202kts
25-Apr-19 15:13 34.374104 -119.933351 188 2985ft 213kts
25-Apr-19 15:14 34.319343 -119.904449 133 2986ft 225kts
25-Apr-19 15:15 34.274982 -119.851243 133 2984ft 224kts
25-Apr-19 15:16 34.231062 -119.798018 133 2992ft 223kts
25-Apr-19 15:17 34.202458 -119.735117 91 2993ft 220kts
25-Apr-19 15:18 34.198864 -119.660982 93 2988ft 221kts
25-Apr-19 15:19 34.195291 -119.586697 93 2989ft 222kts
25-Apr-19 15:20 34.196351 -119.511882 87 2988ft 223kts
25-Apr-19 15:21 34.199110 -119.443072 87 3054ft 219kts
25-Apr-19 15:21 34.201528 -119.381878 87 4881ft 225kts
25-Apr-19 15:23 34.205099 -119.290313 88 7879ft 242kts
25-Apr-19 15:24 34.208338 -119.205847 88 8308ft 244kts
25-Apr-19 15:24 34.210936 -119.136700 88 10939ft 262kts
25-Apr-19 15:25 34.227004 -119.025979 77 14220ft 353kts
25-Apr-19 15:27 34.254338 -118.885778 76 17852ft 379kts
25-Apr-19 15:27 34.275338 -118.779951 76 20442ft 396kts
25-Apr-19 15:28 34.301779 -118.646258 76 23051ft 426kts
25-Apr-19 15:29 34.329386 -118.505837 76 23177ft 431kts
25-Apr-19 15:30 34.356043 -118.369362 76 24835ft 436kts
25-Apr-19 15:31 34.384197 -118.224276 77 26831ft 450kts
25-Apr-19 15:32 34.412992 -118.074865 77 28828ft 463kts
25-Apr-19 15:33 34.460249 -117.928884 64 30813ft 466kts
25-Apr-19 15:34 34.515835 -117.785751 64 31040ft 479kts
25-Apr-19 15:35 34.573903 -117.635686 64 31024ft 491kts
25-Apr-19 15:36 34.631630 -117.485839 64 31033ft 489kts
25-Apr-19 15:37 34.688924 -117.336453 64 31036ft 488kts
25-Apr-19 15:38 34.746139 -117.186575 64 31040ft 488kts
25-Apr-19 15:39 34.803240 -117.036298 64 31019ft 489kts
25-Apr-19 15:40 34.860139 -116.885859 64 30975ft 489kts
25-Apr-19 15:41 34.920052 -116.737440 56 30965ft 488kts
25-Apr-19 15:42 35.007426 -116.611742 46 30974ft 486kts
25-Apr-19 15:43 35.099104 -116.489901 45 30985ft 487kts
25-Apr-19 15:44 35.190684 -116.367840 45 30990ft 487kts
25-Apr-19 15:45 35.282043 -116.245649 45 30991ft 487kts
25-Apr-19 15:46 35.373473 -116.122924 45 30989ft 488kts
25-Apr-19 15:47 35.464740 -115.999971 45 30988ft 488kts
25-Apr-19 15:48 35.556094 -115.876449 45 30991ft 488kts
25-Apr-19 15:49 35.647281 -115.752706 45 30994ft 489kts
25-Apr-19 15:50 35.738570 -115.628362 45 30996ft 488kts
25-Apr-19 15:51 35.829322 -115.504292 46 31001ft 489kts
25-Apr-19 15:52 35.920402 -115.379310 46 31007ft 488kts
25-Apr-19 15:53 36.011197 -115.254248 46 30995ft 488kts
25-Apr-19 15:54 36.105080 -115.133561 39 30967ft 486kts
25-Apr-19 15:55 36.206516 -115.023464 38 30963ft 485kts
25-Apr-19 15:56 36.308183 -114.913355 38 30964ft 485kts
25-Apr-19 15:57 36.410065 -114.802831 38 30970ft 485kts
25-Apr-19 15:58 36.511531 -114.692459 38 30979ft 485kts
25-Apr-19 15:59 36.612807 -114.581912 38 30989ft 485kts
25-Apr-19 16:00 36.716027 -114.473598 33 31031ft 483kts
25-Apr-19 16:01 36.828467 -114.382567 29 31052ft 481kts
25-Apr-19 16:02 36.941560 -114.293390 29 31074ft 481kts
25-Apr-19 16:03 37.054761 -114.204036 29 31142ft 480kts
25-Apr-19 16:04 37.167576 -114.114712 29 31167ft 480kts
25-Apr-19 16:05 37.280298 -114.025149 29 31185ft 479kts
25-Apr-19 16:06 37.393020 -113.935262 29 31204ft 479kts
25-Apr-19 16:07 37.505452 -113.845283 29 31212ft 479kts
25-Apr-19 16:08 37.617556 -113.755243 29 31129ft 478kts
25-Apr-19 16:09 37.729917 -113.664665 29 31188ft 478kts
25-Apr-19 16:10 37.841904 -113.574059 29 31224ft 478kts
25-Apr-19 16:11 37.951574 -113.478199 37 31225ft 481kts
25-Apr-19 16:12 38.051961 -113.365271 38 31214ft 482kts
25-Apr-19 16:13 38.151622 -113.251963 39 31207ft 481kts
25-Apr-19 16:14 38.251478 -113.137920 38 31198ft 481kts
25-Apr-19 16:15 38.352525 -113.026939 31 31196ft 478kts
25-Apr-19 16:16 38.471231 -112.954192 19 31193ft 471kts
25-Apr-19 16:17 38.591996 -112.889655 19 31195ft 471kts
25-Apr-19 16:18 38.713163 -112.824705 19 31195ft 471kts
25-Apr-19 16:19 38.833877 -112.759762 18 31192ft 470kts
25-Apr-19 16:20 38.954328 -112.694712 18 31088ft 471kts
25-Apr-19 16:21 39.075542 -112.629005 19 29094ft 472kts
25-Apr-19 16:22 39.195843 -112.563535 19 26946ft 465kts
25-Apr-19 16:23 39.313562 -112.499214 19 25216ft 454kts
25-Apr-19 16:24 39.427754 -112.433575 20 23516ft 443kts
25-Apr-19 16:25 39.538783 -112.369643 20 21821ft 431kts
25-Apr-19 16:26 39.647028 -112.307156 20 20105ft 420kts
25-Apr-19 16:27 39.752266 -112.246219 20 18308ft 408kts
25-Apr-19 16:28 39.854370 -112.186903 21 16681ft 396kts
25-Apr-19 16:29 39.953733 -112.128990 21 15233ft 386kts
25-Apr-19 16:30 40.050737 -112.070905 22 14117ft 381kts
25-Apr-19 16:31 40.138076 -112.017917 22 12125ft 296kts
25-Apr-19 16:32 40.212617 -111.972747 22 11027ft 263kts
25-Apr-19 16:33 40.283194 -111.939476 2 11046ft 276kts
25-Apr-19 16:34 40.360368 -111.930184 3 11023ft 259kts
25-Apr-19 16:35 40.417653 -111.923128 359 11046ft 198kts
25-Apr-19 16:36 40.476309 -111.928573 353 9956ft 212kts
25-Apr-19 16:37 40.535328 -111.935330 354 8918ft 210kts
25-Apr-19 16:38 40.594871 -111.942200 354 7806ft 213kts
25-Apr-19 16:39 40.647899 -111.948338 354 6664ft 158kts
25-Apr-19 16:40 40.694888 -111.953647 354 5813ft 175kts
25-Apr-19 16:41 40.736195 -111.959603 350 4780ft 134kts
25-Apr-19 16:42 40.773475 -111.962023 357 4237ft 131kts
25-Apr-19 16:43 40.782389 -111.961007 90 4230ft 0kts
25-Apr-19 16:44 40.782336 -111.960242 118 4230ft 7kts
25-Apr-19 16:45 40.780133 -111.959985 179 4230ft 8kts
25-Apr-19 16:46 40.778050 -111.960623 196 4230ft 7kts
25-Apr-19 16:47 40.776512 -111.960169 78 4230ft 10kts
25-Apr-19 16:48 40.776516 -111.959128 175 4230ft 0kts
25-Apr-19 16:49 40.776516 -111.959128 175 4230ft 0kts
25-Apr-19 16:50 40.776516 -111.959128 175 4230ft 0kts

Navigation Log

Ident Type
Flight plan parsing failed, navigation log unavailable